Time;durP1;ratioP1;P1;durP2;ratioP2;P2;SDS_P1;SDS_P2;PMS_P1;PMS_P2;Temp;Humidity;BMP_temperature;BMP_pressure;BME280_temperature;BME280_humidity;BME280_pressure;Samples;Min_cycle;Max_cycle;Signal;HPM_P1;HPM_P2
2022/12/17 13:06:49;;;;;;;65.72;44.97;;;0.70;99.90;;;;;;5082197;28;20051;-75
2022/12/17 13:09:15;;;;;;;80.20;47.22;;;0.70;99.90;;;;;;5089106;28;20117;-75
2022/12/17 13:11:45;;;;;;;75.03;47.70;;;0.70;99.90;;;;;;5065627;28;20040;-75
2022/12/17 13:14:19;;;;;;;67.55;45.33;;;0.60;99.90;;;;;;5065758;28;20146;-76
2022/12/17 13:17:06;;;;;;;70.00;46.92;;;0.60;99.90;;;;;;5073285;28;20046;-76
2022/12/17 13:19:37;;;;;;;73.13;47.50;;;0.50;99.90;;;;;;5074087;28;20067;-76
2022/12/17 13:22:28;;;;;;;70.35;46.38;;;0.50;99.90;;;;;;5070915;28;20118;-76
2022/12/17 13:25:13;;;;;;;72.45;48.08;;;0.50;99.90;;;;;;5068692;28;20035;-76
2022/12/17 13:27:39;;;;;;;69.82;47.17;;;0.50;99.90;;;;;;5062107;28;20046;-78
2022/12/17 13:30:17;;;;;;;74.22;48.05;;;0.50;99.90;;;;;;5067312;28;20073;-76
2022/12/17 13:33:19;;;;;;;73.40;47.95;;;0.40;99.90;;;;;;5064977;28;20412;-79
2022/12/17 13:36:03;;;;;;;74.15;48.28;;;0.30;99.90;;;;;;5057520;28;20075;-77
2022/12/17 13:38:44;;;;;;;70.65;46.30;;;0.30;99.90;;;;;;5072824;28;20050;-77
2022/12/17 13:41:18;;;;;;;72.75;46.38;;;0.30;99.90;;;;;;5064429;28;20520;-77
2022/12/17 13:43:51;;;;;;;71.10;46.55;;;0.20;99.90;;;;;;5058716;28;20540;-77
2022/12/17 13:46:20;;;;;;;73.07;47.03;;;0.20;99.90;;;;;;5067187;28;20036;-77
2022/12/17 13:48:58;;;;;;;72.05;47.15;;;0.20;99.90;;;;;;5083710;28;20036;-77
2022/12/17 13:51:27;;;;;;;73.63;47.22;;;0.10;99.90;;;;;;5088627;28;20073;-77
2022/12/17 13:54:01;;;;;;;76.45;48.47;;;0.10;99.90;;;;;;5062328;28;20047;-77
2022/12/17 13:56:34;;;;;;;73.75;46.90;;;0.00;99.90;;;;;;5089904;28;20089;-77
2022/12/17 13:59:03;;;;;;;73.95;47.95;;;0.00;99.90;;;;;;5066619;28;20040;-77
2022/12/17 14:01:30;;;;;;;75.70;47.42;;;0.00;99.90;;;;;;5066285;28;20036;-77
2022/12/17 14:03:57;;;;;;;79.07;48.80;;;0.00;99.90;;;;;;5065792;28;20040;-77
2022/12/17 14:06:27;;;;;;;74.97;47.63;;;0.00;99.90;;;;;;5090054;28;20039;-77
2022/12/17 14:08:55;;;;;;;73.28;47.45;;;0.00;99.90;;;;;;5076766;28;20074;-77
2022/12/17 14:14:39;;;;;;;80.18;47.28;;;-0.10;99.90;;;;;;5074445;28;20557;-77
2022/12/17 14:17:13;;;;;;;73.97;46.65;;;-0.10;99.90;;;;;;5056689;28;20048;-77
2022/12/17 14:19:39;;;;;;;75.97;47.03;;;-0.20;99.90;;;;;;5058014;28;20039;-77
2022/12/17 14:22:05;;;;;;;76.10;46.42;;;-0.20;99.90;;;;;;5078883;28;20059;-77
2022/12/17 14:24:31;;;;;;;73.32;46.47;;;-0.20;99.90;;;;;;5061283;28;20044;-77
2022/12/17 14:26:59;;;;;;;73.35;44.15;;;-0.30;99.90;;;;;;5068838;28;20047;-77
2022/12/17 14:29:31;;;;;;;75.00;46.00;;;-0.30;99.90;;;;;;5076205;28;20126;-77
2022/12/17 14:32:20;;;;;;;75.43;45.75;;;-0.40;99.90;;;;;;5066849;28;20166;-77
2022/12/17 14:34:45;;;;;;;79.07;47.20;;;-0.40;99.90;;;;;;5060003;28;20044;-76
2022/12/17 14:37:24;;;;;;;81.38;48.15;;;-0.40;99.90;;;;;;5061305;28;20076;-75
2022/12/17 14:39:53;;;;;;;79.07;46.40;;;-0.40;99.90;;;;;;5081059;28;20047;-77
2022/12/17 14:42:24;;;;;;;55.75;25.27;;;-0.40;99.90;;;;;;5060513;28;20071;-77
2022/12/17 14:44:58;;;;;;;78.97;47.60;;;-0.50;99.90;;;;;;5067965;28;20088;-77
2022/12/17 14:47:30;;;;;;;91.13;48.45;;;-0.50;99.90;;;;;;5065284;28;20036;-77
2022/12/17 14:49:56;;;;;;;79.13;48.83;;;-0.50;99.90;;;;;;5060401;28;20031;-77
2022/12/17 14:52:42;;;;;;;80.65;49.05;;;-0.50;99.90;;;;;;5060670;28;20160;-77
2022/12/17 14:55:32;;;;;;;79.90;47.65;;;-0.50;99.90;;;;;;5063689;28;20035;-77
2022/12/17 14:58:10;;;;;;;79.97;48.03;;;-0.60;99.90;;;;;;5080527;28;20040;-77
2022/12/17 15:01:06;;;;;;;82.40;47.33;;;-0.60;99.90;;;;;;5064018;28;20118;-77
2022/12/17 15:03:37;;;;;;;77.35;45.83;;;-0.60;99.90;;;;;;5061526;28;20051;-77
2022/12/17 15:06:08;;;;;;;78.10;45.90;;;-0.70;99.90;;;;;;5070826;28;20124;-76
2022/12/17 15:08:46;;;;;;;80.40;45.90;;;-0.70;99.90;;;;;;5093873;28;20050;-76
2022/12/17 15:11:16;;;;;;;76.38;44.97;;;-0.80;99.90;;;;;;5064012;28;20397;-76
2022/12/17 15:13:42;;;;;;;76.65;45.65;;;-0.80;99.90;;;;;;5059888;28;20077;-76
2022/12/17 15:16:08;;;;;;;80.90;45.60;;;-0.80;99.90;;;;;;5080040;28;20613;-76
2022/12/17 15:18:33;;;;;;;81.03;46.53;;;-0.80;99.90;;;;;;5064229;28;20086;-75
2022/12/17 15:21:01;;;;;;;78.13;45.10;;;-0.90;99.90;;;;;;5064932;28;20031;-75
2022/12/17 15:23:26;;;;;;;82.95;46.80;;;-0.90;99.90;;;;;;5089573;28;20370;-76
2022/12/17 15:25:55;;;;;;;83.55;46.72;;;-0.90;99.90;;;;;;5065898;28;20036;-76
2022/12/17 15:28:22;;;;;;;86.57;47.30;;;-0.90;99.90;;;;;;5078760;28;20039;-76
2022/12/17 15:30:48;;;;;;;80.53;46.00;;;-0.90;99.90;;;;;;5069310;28;20051;-76
2022/12/17 15:33:17;;;;;;;82.82;45.67;;;-0.90;99.90;;;;;;5070711;28;20032;-76
2022/12/17 15:35:43;;;;;;;81.50;46.40;;;-0.90;99.90;;;;;;5090318;28;20395;-76
2022/12/17 15:38:10;;;;;;;84.07;45.35;;;-0.90;99.90;;;;;;5069880;28;20040;-76
2022/12/17 15:40:36;;;;;;;82.85;46.50;;;-1.00;99.90;;;;;;5093626;28;20439;-76
2022/12/17 15:43:11;;;;;;;84.53;46.50;;;-1.00;99.90;;;;;;5077107;28;20122;-76
2022/12/17 15:45:45;;;;;;;82.20;46.08;;;-1.00;99.90;;;;;;5063153;28;20534;-76
2022/12/17 15:48:13;;;;;;;84.50;46.97;;;-1.00;99.90;;;;;;5091647;28;20423;-76
2022/12/17 15:50:39;;;;;;;82.10;46.28;;;-1.10;99.90;;;;;;5067682;28;20585;-75
2022/12/17 15:53:05;;;;;;;78.22;43.70;;;-1.10;99.90;;;;;;5068556;28;20032;-75
2022/12/17 15:55:31;;;;;;;83.25;46.40;;;-1.10;99.90;;;;;;5067207;28;20519;-75
2022/12/17 15:58:15;;;;;;;85.65;46.90;;;-1.20;99.90;;;;;;5086391;28;20048;-78
2022/12/17 16:00:43;;;;;;;86.00;46.00;;;-1.10;99.90;;;;;;5089231;28;20027;-77
2022/12/17 16:03:09;;;;;;;86.18;45.20;;;-1.10;99.90;;;;;;5070815;28;20118;-76
2022/12/17 16:05:35;;;;;;;80.90;46.47;;;-1.20;99.90;;;;;;5063939;28;20123;-76
2022/12/17 16:08:01;;;;;;;53.88;21.50;;;-1.20;99.90;;;;;;5070781;28;20039;-76
2022/12/17 16:10:27;;;;;;;55.33;22.40;;;-1.30;99.90;;;;;;5075128;28;20028;-76
2022/12/17 16:12:52;;;;;;;84.70;44.67;;;-1.30;99.90;;;;;;5084951;28;20508;-76
2022/12/17 16:15:18;;;;;;;88.25;47.38;;;-1.40;99.90;;;;;;5071636;28;20424;-76
2022/12/17 16:17:44;;;;;;;84.45;45.65;;;-1.40;99.90;;;;;;5075531;28;20074;-76
2022/12/17 16:20:10;;;;;;;56.05;21.90;;;-1.40;99.90;;;;;;5069692;28;20048;-76
2022/12/17 16:22:37;;;;;;;79.72;43.25;;;-1.40;99.90;;;;;;5073087;28;20244;-76
2022/12/17 16:25:03;;;;;;;80.70;44.20;;;-1.50;99.90;;;;;;5072685;28;20588;-75
2022/12/17 16:27:34;;;;;;;87.13;46.00;;;-1.40;99.90;;;;;;5071851;28;20082;-76
2022/12/17 16:30:02;;;;;;;59.05;23.40;;;-1.50;99.90;;;;;;5078093;28;20058;-75
2022/12/17 16:32:28;;;;;;;87.10;45.55;;;-1.50;99.90;;;;;;5064298;28;20122;-76
2022/12/17 16:34:54;;;;;;;67.35;23.55;;;-1.50;99.90;;;;;;5064140;28;20048;-75
2022/12/17 16:37:20;;;;;;;98.05;47.63;;;-1.50;99.90;;;;;;5069944;28;20043;-75
2022/12/17 16:39:46;;;;;;;60.03;21.88;;;-1.50;99.90;;;;;;5067160;28;20046;-74
2022/12/17 16:42:12;;;;;;;91.47;47.92;;;-1.50;99.90;;;;;;5063264;28;20040;-75
2022/12/17 16:44:38;;;;;;;64.40;22.90;;;-1.60;99.90;;;;;;5082025;28;20067;-75
2022/12/17 16:47:04;;;;;;;92.80;47.53;;;-1.60;99.90;;;;;;5059572;28;20036;-75
2022/12/17 16:49:30;;;;;;;61.55;22.98;;;-1.60;99.90;;;;;;5089072;28;20111;-75
2022/12/17 16:51:56;;;;;;;55.33;22.63;;;-1.60;99.90;;;;;;5061436;28;20035;-75
2022/12/17 16:54:25;;;;;;;94.68;46.75;;;-1.60;99.90;;;;;;5089997;28;20574;-75
2022/12/17 16:56:52;;;;;;;95.07;47.28;;;-1.60;99.90;;;;;;5090241;28;20043;-75
2022/12/17 16:59:18;;;;;;;67.88;24.40;;;-1.60;99.90;;;;;;5072248;28;20427;-75
2022/12/17 17:01:46;;;;;;;89.82;45.38;;;-1.60;99.90;;;;;;5066699;28;20089;-75
2022/12/17 17:04:16;;;;;;;86.93;45.13;;;-1.60;99.90;;;;;;5058864;28;20089;-76
2022/12/17 17:06:51;;;;;;;66.80;24.10;;;-1.60;99.90;;;;;;5069492;28;20089;-76
2022/12/17 17:09:17;;;;;;;89.03;46.15;;;-1.70;99.90;;;;;;5061834;28;20543;-76
2022/12/17 17:11:44;;;;;;;92.32;45.63;;;-1.70;99.90;;;;;;5058052;28;20040;-76
2022/12/17 17:14:10;;;;;;;61.15;22.00;;;-1.70;99.90;;;;;;5057216;28;20412;-75
2022/12/17 17:16:36;;;;;;;63.92;22.90;;;-1.70;99.90;;;;;;5085830;28;20043;-74
2022/12/17 17:19:04;;;;;;;92.10;45.30;;;-1.80;99.90;;;;;;5079907;28;20547;-75
2022/12/17 17:21:37;;;;;;;58.55;22.08;;;-1.80;99.90;;;;;;5065126;28;20089;-75
2022/12/17 17:24:10;;;;;;;75.45;25.40;;;-1.80;99.90;;;;;;5090337;28;20109;-76
2022/12/17 17:26:37;;;;;;;59.35;22.02;;;-1.70;99.90;;;;;;5088944;28;20042;-75
2022/12/17 17:29:04;;;;;;;100.93;48.03;;;-1.80;99.90;;;;;;5087608;28;20071;-75
2022/12/17 17:31:30;;;;;;;98.68;46.97;;;-1.80;99.90;;;;;;5059925;28;20043;-75
2022/12/17 17:33:58;;;;;;;98.60;48.88;;;-1.70;99.90;;;;;;5056888;28;20154;-75
2022/12/17 17:36:29;;;;;;;99.07;47.38;;;-1.80;99.90;;;;;;5063358;28;20090;-75
2022/12/17 17:38:57;;;;;;;97.38;47.08;;;-1.80;99.90;;;;;;5083707;28;20032;-75
2022/12/17 17:41:28;;;;;;;100.00;48.72;;;-1.70;99.90;;;;;;5075799;28;20172;-75
2022/12/17 17:44:12;;;;;;;92.93;45.75;;;-1.80;99.90;;;;;;5073016;28;20521;-75
2022/12/17 17:46:38;;;;;;;67.05;25.58;;;-1.80;99.90;;;;;;5059445;28;20036;-76
2022/12/17 17:49:06;;;;;;;65.20;24.20;;;-1.80;99.90;;;;;;5056114;28;20184;-76
2022/12/17 17:51:41;;;;;;;61.40;22.27;;;-1.90;99.90;;;;;;5055855;28;20051;-75
2022/12/17 17:54:06;;;;;;;66.38;26.27;;;-1.80;99.90;;;;;;5059786;28;20043;-75
2022/12/17 17:56:36;;;;;;;73.72;24.38;;;-1.90;99.90;;;;;;5070613;28;20130;-75
2022/12/17 17:59:05;;;;;;;54.33;23.58;;;-1.90;99.90;;;;;;5061795;28;20115;-75
2022/12/17 18:01:42;;;;;;;90.30;47.70;;;-1.90;99.90;;;;;;5080161;28;20042;-75
2022/12/17 18:04:13;;;;;;;92.57;50.67;;;-2.00;99.90;;;;;;5070112;28;20027;-75
2022/12/17 18:06:41;;;;;;;93.60;50.07;;;-1.90;99.90;;;;;;5073358;28;20482;-75
2022/12/17 18:09:08;;;;;;;99.78;50.70;;;-2.00;99.90;;;;;;5070919;28;20301;-75
2022/12/17 18:11:35;;;;;;;92.03;48.92;;;-2.00;99.90;;;;;;5072185;28;20475;-75
2022/12/17 18:14:02;;;;;;;60.88;24.05;;;-2.00;99.90;;;;;;5070360;28;20036;-75
2022/12/17 18:16:43;;;;;;;86.13;49.22;;;-2.00;99.90;;;;;;5087557;28;20078;-76
2022/12/17 18:19:10;;;;;;;86.75;49.45;;;-2.00;99.90;;;;;;5067864;28;20466;-75
2022/12/17 18:21:37;;;;;;;58.25;25.52;;;-2.00;99.90;;;;;;5083104;28;20047;-75
2022/12/17 18:24:39;;;;;;;64.95;25.75;;;-2.00;99.90;;;;;;5067954;28;20482;-79
2022/12/17 18:27:05;;;;;;;59.85;25.65;;;-2.00;99.90;;;;;;5068488;28;20040;-76
2022/12/17 18:29:31;;;;;;;62.30;23.67;;;-2.10;99.90;;;;;;5058499;28;20047;-76
2022/12/17 18:31:56;;;;;;;71.63;26.95;;;-2.10;99.90;;;;;;5072334;28;20044;-76
2022/12/17 18:34:26;;;;;;;69.78;25.13;;;-2.10;99.90;;;;;;5059918;28;20039;-76
2022/12/17 18:36:52;;;;;;;97.60;54.42;;;-2.00;99.90;;;;;;5089137;28;20043;-76
2022/12/17 18:39:23;;;;;;;69.00;28.50;;;-2.10;99.90;;;;;;5059511;28;20557;-76
2022/12/17 18:44:40;;;;;;;62.67;26.13;;;-2.10;99.90;;;;;;5087704;28;20646;-76
2022/12/17 18:47:06;;;;;;;59.47;26.20;;;-2.10;99.90;;;;;;5069297;28;20388;-76
2022/12/17 18:49:32;;;;;;;91.95;53.47;;;-2.10;99.90;;;;;;5065961;28;20044;-76
2022/12/17 18:51:58;;;;;;;69.45;27.13;;;-2.20;99.90;;;;;;5080671;28;20155;-76
2022/12/17 18:54:26;;;;;;;60.75;26.52;;;-2.20;99.90;;;;;;5066400;28;20040;-76
2022/12/17 18:56:53;;;;;;;63.22;25.10;;;-2.20;99.90;;;;;;5070538;28;20115;-76
2022/12/17 18:59:21;;;;;;;61.42;25.10;;;-2.20;99.90;;;;;;5072249;28;20035;-76
2022/12/17 19:01:47;;;;;;;62.72;27.42;;;-2.20;99.90;;;;;;5078578;28;20088;-76
2022/12/17 19:04:16;;;;;;;58.55;24.58;;;-2.30;99.90;;;;;;5074088;28;20065;-76
2022/12/17 19:06:44;;;;;;;59.88;26.55;;;-2.30;99.90;;;;;;5077670;28;20126;-76
2022/12/17 19:09:20;;;;;;;85.68;51.03;;;-2.30;99.90;;;;;;5077225;28;20039;-76
2022/12/17 19:11:46;;;;;;;92.82;51.90;;;-2.30;99.90;;;;;;5066210;28;20411;-76
2022/12/17 19:14:12;;;;;;;62.72;27.15;;;-2.30;99.90;;;;;;5089134;28;20042;-76
2022/12/17 19:16:37;;;;;;;89.65;53.08;;;-2.30;99.90;;;;;;5071104;28;20031;-76
2022/12/17 19:19:04;;;;;;;60.58;27.05;;;-2.30;99.90;;;;;;5068190;28;20078;-75
2022/12/17 19:21:32;;;;;;;92.07;53.38;;;-2.30;99.90;;;;;;5066681;28;20084;-76
2022/12/17 19:24:00;;;;;;;61.30;25.33;;;-2.30;99.90;;;;;;5065200;28;20028;-75
2022/12/17 19:26:28;;;;;;;62.58;26.48;;;-2.30;99.90;;;;;;5078195;28;20118;-76
2022/12/17 19:28:56;;;;;;;62.35;26.67;;;-2.40;99.90;;;;;;5077299;28;20043;-76
2022/12/17 19:31:24;;;;;;;95.13;52.10;;;-2.40;99.90;;;;;;5078077;28;20043;-75
2022/12/17 19:33:58;;;;;;;89.93;53.10;;;-2.40;99.90;;;;;;5077861;28;20040;-75
2022/12/17 19:36:26;;;;;;;64.88;28.45;;;-2.40;99.90;;;;;;5065749;28;20088;-75
2022/12/17 19:38:53;;;;;;;59.58;26.52;;;-2.40;99.90;;;;;;5068963;28;20496;-76
2022/12/17 19:41:19;;;;;;;63.45;25.65;;;-2.40;99.90;;;;;;5077306;28;20196;-76
2022/12/17 19:43:51;;;;;;;64.63;26.23;;;-2.40;99.90;;;;;;5069336;28;20036;-76
2022/12/17 19:46:18;;;;;;;55.20;25.88;;;-2.50;99.90;;;;;;5058951;28;20077;-76
2022/12/17 19:48:45;;;;;;;56.40;24.73;;;-2.50;99.90;;;;;;5075850;28;20119;-75
2022/12/17 19:51:14;;;;;;;62.90;27.27;;;-2.50;99.90;;;;;;5076367;28;20181;-76
2022/12/17 19:53:42;;;;;;;61.92;27.02;;;-2.50;99.90;;;;;;5073250;28;20043;-76
2022/12/17 19:56:16;;;;;;;65.88;26.33;;;-2.50;99.90;;;;;;5068240;28;20036;-76
2022/12/17 19:58:44;;;;;;;70.25;27.77;;;-2.50;99.90;;;;;;5067343;28;20044;-75
2022/12/17 20:01:13;;;;;;;66.15;25.17;;;-2.50;99.90;;;;;;5071269;28;20067;-76
2022/12/17 20:03:39;;;;;;;61.30;28.52;;;-2.50;99.90;;;;;;5059007;28;20393;-76
2022/12/17 20:06:06;;;;;;;64.15;26.58;;;-2.50;99.90;;;;;;5057905;28;20436;-76
2022/12/17 20:08:33;;;;;;;64.78;28.10;;;-2.50;99.90;;;;;;5056730;28;20035;-76
2022/12/17 20:11:01;;;;;;;65.35;27.17;;;-2.50;99.90;;;;;;5058809;28;20051;-76
2022/12/17 20:13:27;;;;;;;64.47;27.20;;;-2.50;99.90;;;;;;5058737;28;20086;-76
2022/12/17 20:16:01;;;;;;;71.50;28.02;;;-2.40;99.90;;;;;;5068514;28;20040;-76
2022/12/17 20:18:27;;;;;;;91.78;52.17;;;-2.50;99.90;;;;;;5075565;28;20490;-76
2022/12/17 20:21:03;;;;;;;100.95;54.63;;;-2.50;99.90;;;;;;5076499;28;20032;-76
2022/12/17 20:23:29;;;;;;;58.42;25.45;;;-2.50;99.90;;;;;;5069623;28;20063;-76
2022/12/17 20:26:09;;;;;;;70.78;26.90;;;-2.50;99.90;;;;;;5076025;28;20063;-76
2022/12/17 20:28:36;;;;;;;58.45;24.05;;;-2.60;99.90;;;;;;5061083;28;20512;-76
2022/12/17 20:31:03;;;;;;;62.85;26.77;;;-2.50;99.90;;;;;;5057615;28;20316;-76
2022/12/17 20:33:29;;;;;;;94.38;52.78;;;-2.60;99.90;;;;;;5076439;28;20063;-76
2022/12/17 20:35:55;;;;;;;60.03;25.80;;;-2.60;99.90;;;;;;5071385;28;20047;-76
2022/12/17 20:38:22;;;;;;;66.95;26.77;;;-2.60;99.90;;;;;;5060707;28;20040;-75
2022/12/17 20:40:47;;;;;;;104.95;55.85;;;-2.60;99.90;;;;;;5075816;22;20062;-83
2022/12/17 20:43:13;;;;;;;72.50;27.20;;;-2.60;99.90;;;;;;5077554;28;20032;-83
2022/12/17 20:45:47;;;;;;;74.50;26.83;;;-2.60;99.90;;;;;;5080474;28;20028;-83
2022/12/17 20:48:15;;;;;;;68.05;27.00;;;-2.60;99.90;;;;;;5069743;28;20043;-83
2022/12/17 20:50:41;;;;;;;104.75;54.88;;;-2.60;99.90;;;;;;5076417;28;20274;-82
2022/12/17 20:53:08;;;;;;;71.97;27.67;;;-2.60;99.90;;;;;;5063680;28;20028;-78
2022/12/17 20:55:33;;;;;;;108.82;56.20;;;-2.60;99.90;;;;;;5078863;28;20031;-83
2022/12/17 20:57:59;;;;;;;74.00;28.00;;;-2.60;99.90;;;;;;5077400;28;20040;-82
2022/12/17 21:00:25;;;;;;;77.40;29.80;;;-2.60;99.90;;;;;;5070120;28;20119;-83
2022/12/17 21:02:50;;;;;;;71.57;27.33;;;-2.60;99.90;;;;;;5069024;28;20114;-83
2022/12/17 21:05:16;;;;;;;113.28;57.10;;;-2.60;99.90;;;;;;5069456;28;20190;-83
2022/12/17 21:07:43;;;;;;;74.38;30.50;;;-2.60;99.90;;;;;;5077971;28;20047;-83
2022/12/17 21:10:10;;;;;;;70.45;26.70;;;-2.60;99.90;;;;;;5078431;28;20040;-83
2022/12/17 21:15:20;;;;;;;77.75;27.83;;;-2.60;99.90;;;;;;5086547;28;20081;-83
2022/12/17 21:17:46;;;;;;;113.32;55.63;;;-2.60;99.90;;;;;;5068248;28;20686;-84
2022/12/17 21:20:12;;;;;;;120.93;55.97;;;-2.60;99.90;;;;;;5080365;28;20039;-83
2022/12/17 21:22:38;;;;;;;78.38;28.17;;;-2.60;99.90;;;;;;5073855;28;20039;-83
2022/12/17 21:25:05;;;;;;;71.80;26.55;;;-2.60;99.90;;;;;;5065557;28;20031;-83
2022/12/17 21:27:30;;;;;;;123.85;54.55;;;-2.60;99.90;;;;;;5060648;28;20048;-83
2022/12/17 21:29:56;;;;;;;120.07;56.38;;;-2.60;99.90;;;;;;5078804;28;20107;-83
2022/12/17 21:32:21;;;;;;;80.35;28.45;;;-2.60;99.90;;;;;;5097448;28;20049;-81
2022/12/17 21:34:47;;;;;;;85.75;27.58;;;-2.60;99.90;;;;;;5072145;28;20126;-84
2022/12/17 21:37:12;;;;;;;73.82;25.08;;;-2.60;99.90;;;;;;5089133;28;20044;-83
2022/12/17 21:39:38;;;;;;;123.82;54.33;;;-2.60;99.90;;;;;;5078568;28;20046;-82
2022/12/17 21:44:48;;;;;;;73.68;27.50;;;-2.60;99.90;;;;;;5092981;28;20039;-83
2022/12/17 21:47:14;;;;;;;117.47;55.45;;;-2.60;99.90;;;;;;5076423;28;20043;-83
2022/12/17 21:49:39;;;;;;;77.85;28.30;;;-2.60;99.90;;;;;;5078848;28;20042;-84
2022/12/17 21:52:07;;;;;;;77.28;27.25;;;-2.60;99.90;;;;;;5094198;28;20081;-83
2022/12/17 21:54:33;;;;;;;71.05;26.83;;;-2.60;99.90;;;;;;5077803;28;20070;-84
2022/12/17 21:56:59;;;;;;;74.85;28.23;;;-2.60;99.90;;;;;;5071767;28;20047;-84
2022/12/17 21:59:24;;;;;;;67.75;26.00;;;-2.60;99.90;;;;;;5080213;28;20046;-83
2022/12/17 22:01:57;;;;;;;74.43;24.40;;;-2.70;99.90;;;;;;5081844;28;20436;-83
2022/12/17 22:04:26;;;;;;;72.30;25.67;;;-2.70;99.90;;;;;;5073877;28;20066;-83
2022/12/17 22:06:55;;;;;;;76.85;25.63;;;-2.70;99.90;;;;;;5078338;28;20034;-83
2022/12/17 22:09:23;;;;;;;66.15;25.67;;;-2.60;99.90;;;;;;5085803;28;20051;-83
2022/12/17 22:14:01;;;;;;;101.85;47.30;;;-2.70;99.90;;;;;;5076817;28;20406;-83
2022/12/17 22:14:34;;;;;;;101.15;47.35;;;-2.70;99.90;;;;;;5086442;28;20043;-83
2022/12/17 22:17:06;;;;;;;65.03;23.02;;;-2.80;99.90;;;;;;5064242;28;20069;-83
2022/12/17 22:19:32;;;;;;;61.93;22.70;;;-2.80;99.90;;;;;;5071530;28;20036;-83
2022/12/17 22:21:58;;;;;;;70.47;26.00;;;-2.90;99.90;;;;;;5078630;28;20055;-83
2022/12/17 22:24:24;;;;;;;63.67;25.20;;;-2.90;99.90;;;;;;5096757;28;20065;-83
2022/12/17 22:26:58;;;;;;;71.32;24.45;;;-2.90;99.90;;;;;;5082806;28;20051;-84
2022/12/17 22:34:58;;;;;;;67.22;22.83;;;-3.00;99.90;;;;;;5080577;28;20092;-83
2022/12/17 22:37:24;;;;;;;58.78;21.80;;;-3.10;99.90;;;;;;5081080;28;20040;-83
2022/12/17 22:39:52;;;;;;;100.45;46.58;;;-3.10;99.90;;;;;;5075324;28;20484;-82
2022/12/17 22:45:04;;;;;;;59.83;23.58;;;-3.10;99.90;;;;;;5092221;28;20046;-83
2022/12/17 22:47:30;;;;;;;62.80;24.42;;;-3.10;99.90;;;;;;5093645;28;20028;-83
2022/12/17 22:49:59;;;;;;;106.72;49.50;;;-3.10;99.90;;;;;;5082714;28;20548;-85
2022/12/17 22:52:24;;;;;;;64.97;22.38;;;-3.10;99.90;;;;;;5090277;28;20066;-83
2022/12/17 22:54:50;;;;;;;61.70;23.67;;;-3.10;99.90;;;;;;5064117;28;20505;-83
2022/12/17 22:57:15;;;;;;;68.38;23.85;;;-3.20;99.90;;;;;;5073151;28;20058;-83
2022/12/17 22:59:41;;;;;;;77.97;25.20;;;-3.20;99.90;;;;;;5075345;28;20043;-83
2022/12/17 23:02:09;;;;;;;118.18;51.25;;;-3.20;99.90;;;;;;5099615;28;20112;-83
2022/12/17 23:04:34;;;;;;;75.88;26.00;;;-3.20;99.90;;;;;;5066799;28;20047;-83
2022/12/17 23:07:01;;;;;;;73.68;24.85;;;-3.10;99.90;;;;;;5064137;28;20032;-82
2022/12/17 23:09:26;;;;;;;72.43;24.67;;;-3.10;99.90;;;;;;5074543;28;20036;-83
2022/12/17 23:11:52;;;;;;;73.00;25.27;;;-3.20;99.90;;;;;;5095722;28;20120;-83
2022/12/17 23:14:18;;;;;;;64.97;22.70;;;-3.10;99.90;;;;;;5063073;28;20036;-82
2022/12/17 23:16:44;;;;;;;61.10;23.60;;;-3.10;99.90;;;;;;5064179;28;20501;-83
2022/12/17 23:19:12;;;;;;;103.97;45.75;;;-3.20;99.90;;;;;;5073024;28;20119;-84
2022/12/17 23:21:38;;;;;;;63.22;23.63;;;-3.20;99.90;;;;;;5067715;28;20043;-83
2022/12/17 23:24:04;;;;;;;61.75;23.05;;;-3.30;99.90;;;;;;5076505;28;20044;-83
2022/12/17 23:26:35;;;;;;;103.82;48.17;;;-3.30;99.90;;;;;;5081767;28;20039;-83
2022/12/17 23:29:07;;;;;;;63.15;22.38;;;-3.30;99.90;;;;;;5070428;28;20047;-83
2022/12/17 23:31:36;;;;;;;62.65;23.90;;;-3.30;99.90;;;;;;5071801;28;20044;-84
2022/12/17 23:34:02;;;;;;;71.15;23.27;;;-3.30;99.90;;;;;;5093169;28;20044;-83
2022/12/17 23:36:28;;;;;;;62.35;22.48;;;-3.30;99.90;;;;;;5082235;28;20316;-83
2022/12/17 23:38:57;;;;;;;62.00;23.17;;;-3.40;99.90;;;;;;5072650;28;20453;-84
2022/12/17 23:41:25;;;;;;;60.40;22.25;;;-3.30;99.90;;;;;;5073885;28;20043;-83
2022/12/17 23:43:52;;;;;;;61.00;22.45;;;-3.40;99.90;;;;;;5074873;28;20047;-83
2022/12/17 23:46:22;;;;;;;113.25;50.22;;;-3.40;99.90;;;;;;5074400;28;20035;-82
2022/12/17 23:48:54;;;;;;;63.78;23.88;;;-3.40;99.90;;;;;;5076077;28;20398;-83
2022/12/17 23:51:22;;;;;;;69.20;24.33;;;-3.40;99.90;;;;;;5079437;28;20478;-83
2022/12/17 23:53:57;;;;;;;64.95;23.65;;;-3.50;99.90;;;;;;5075646;28;20069;-83
2022/12/17 23:56:27;;;;;;;;;;;-3.50;99.90;;;;;;5100472;28;20038;-84
2022/12/17 23:59:01;;;;;;;63.40;22.85;;;-3.50;99.90;;;;;;5078457;28;20385;-83
